Terminal Aerodrome Forecast
Issued by NWS Grand Forks, ND

Home | Current Version | Previous Version | Text Only | Print | Product List | Glossary On
Versions: 1 2 3 4 5 6 7 8 9 10 11 12 13 14 15 16 17 18 19 20
821
FTUS43 KFGF 070520
TAFFAR
TAF
KFAR 070520Z 0706/0806 24016G23KT P6SM OVC070
     FM070800 25015G25KT 4SM -RASN OVC015
     FM071000 27022G30KT P6SM BKN040
     FM071500 30025G40KT 2SM -SN BKN015
     FM071700 33030G45KT 1/4SM SN BLSN BKN008
     FM080400 34025G32KT 3/4SM BLSN BKN020=

USA.gov is the U.S. government's official web portal to all federal, state and local government web resources and services.